createdAt,value
2022-11-21T00:01:56.715Z,11.93
2022-11-21T00:04:44.271Z,9.18
2022-11-21T00:07:31.845Z,10.80
2022-11-21T00:10:19.101Z,8.13
2022-11-21T00:13:08.095Z,10.38
2022-11-21T00:15:55.597Z,6.85
2022-11-21T00:18:44.128Z,7.03
2022-11-21T00:21:31.438Z,3.42
2022-11-21T00:24:18.562Z,5.53
2022-11-21T00:27:05.948Z,5.22
2022-11-21T00:29:53.315Z,7.92
2022-11-21T00:32:41.031Z,7.40
2022-11-21T00:35:28.907Z,5.55
2022-11-21T00:38:16.208Z,4.00
2022-11-21T00:41:03.291Z,3.85
2022-11-21T00:43:50.423Z,5.20
2022-11-21T00:46:37.374Z,5.37
2022-11-21T00:49:24.950Z,7.90
2022-11-21T00:52:12.161Z,7.75
2022-11-21T00:54:59.706Z,6.33
2022-11-21T00:57:46.711Z,3.37
2022-11-21T01:00:34.446Z,4.10
2022-11-21T01:03:22.188Z,4.70
2022-11-21T01:06:14.513Z,6.42
2022-11-21T01:09:02.025Z,4.67
2022-11-21T01:11:49.698Z,4.72
2022-11-21T01:14:36.880Z,2.40
2022-11-21T01:17:24.070Z,4.08
2022-11-21T01:20:12.208Z,2.72
2022-11-21T01:22:59.602Z,3.52
2022-11-21T01:25:47.017Z,4.62
2022-11-21T01:28:35.223Z,4.78
2022-11-21T01:31:25.570Z,4.53
2022-11-21T01:34:14.436Z,6.95
2022-11-21T01:37:02.333Z,5.28
2022-11-21T01:39:50.239Z,3.60
2022-11-21T01:42:59.145Z,4.42
2022-11-21T01:46:01.902Z,4.87
2022-11-21T01:48:55.161Z,8.60
2022-11-21T01:51:51.423Z,4.20
2022-11-21T01:54:41.652Z,5.35
2022-11-21T01:57:34.823Z,6.70
2022-11-21T02:00:27.960Z,5.60
2022-11-21T02:03:18.505Z,9.60
2022-11-21T02:06:08.950Z,5.95
2022-11-21T02:08:58.003Z,7.35
2022-11-21T02:11:57.612Z,9.20
2022-11-21T02:14:45.811Z,9.55
2022-11-21T02:17:34.000Z,11.97
2022-11-21T02:20:27.525Z,7.67
2022-11-21T02:23:29.645Z,14.07
2022-11-21T02:26:16.797Z,7.50
2022-11-21T02:29:04.256Z,9.98
2022-11-21T02:31:53.680Z,10.38
2022-11-21T02:34:41.082Z,11.68
2022-11-21T02:37:29.313Z,12.40
2022-11-21T02:40:24.494Z,8.58
2022-11-21T02:43:27.228Z,9.20
2022-11-21T02:46:14.684Z,13.83
2022-11-21T02:49:03.897Z,7.00
2022-11-21T02:51:51.385Z,12.40
2022-11-21T02:54:38.602Z,9.58
2022-11-21T02:57:25.833Z,12.00
2022-11-21T03:00:13.759Z,14.25
2022-11-21T03:03:01.045Z,12.90
2022-11-21T03:05:48.496Z,7.62
2022-11-21T03:08:35.933Z,20.68
2022-11-21T03:11:23.305Z,18.82
2022-11-21T03:14:10.807Z,13.45
2022-11-21T03:16:58.089Z,11.38
2022-11-21T03:19:45.307Z,10.90
2022-11-21T03:22:32.940Z,16.37
2022-11-21T03:25:20.690Z,9.10
2022-11-21T03:28:07.909Z,16.17
2022-11-21T03:30:55.219Z,14.73
2022-11-21T03:33:42.456Z,6.65
2022-11-21T03:36:29.917Z,18.35
2022-11-21T03:39:17.253Z,11.85
2022-11-21T03:42:04.981Z,13.25
2022-11-21T03:44:52.387Z,10.50
2022-11-21T03:47:39.587Z,17.00
2022-11-21T03:50:26.813Z,12.37
2022-11-21T03:53:14.058Z,15.18
2022-11-21T03:56:01.229Z,14.50
2022-11-21T03:58:48.528Z,15.45
2022-11-21T04:01:37.095Z,11.73
2022-11-21T04:04:24.705Z,16.20
2022-11-21T04:07:12.256Z,15.30
2022-11-21T04:10:00.101Z,12.73
2022-11-21T04:12:47.184Z,15.68
2022-11-21T04:15:34.530Z,11.57
2022-11-21T04:18:21.844Z,15.35
2022-11-21T04:21:09.850Z,16.87
2022-11-21T04:23:57.070Z,10.85
2022-11-21T04:26:44.022Z,8.05
2022-11-21T04:29:31.429Z,11.75
2022-11-21T04:32:18.534Z,19.42
2022-11-21T04:35:05.905Z,15.38
2022-11-21T04:37:53.622Z,11.63
2022-11-21T04:40:41.190Z,14.03
2022-11-21T04:43:28.328Z,10.70
2022-11-21T04:46:15.440Z,15.15
2022-11-21T04:49:02.973Z,11.57
2022-11-21T04:51:50.291Z,20.25
2022-11-21T04:54:37.737Z,11.95
2022-11-21T04:57:25.236Z,13.65
2022-11-21T05:00:13.807Z,11.78
2022-11-21T05:03:05.956Z,10.43
2022-11-21T05:05:53.285Z,9.68
2022-11-21T05:08:40.380Z,11.18
2022-11-21T05:11:45.925Z,9.28
2022-11-21T05:14:33.561Z,10.25
2022-11-21T05:17:20.913Z,8.88
2022-11-21T05:20:08.973Z,17.35
2022-11-21T05:22:56.515Z,12.68
2022-11-21T05:25:44.069Z,8.10
2022-11-21T05:28:31.418Z,8.73
2022-11-21T05:31:18.636Z,9.23
2022-11-21T05:34:06.547Z,12.18
2022-11-21T05:36:59.534Z,12.75
2022-11-21T05:39:47.061Z,26.97
2022-11-21T05:42:52.650Z,31.97
2022-11-21T05:45:40.217Z,21.37
2022-11-21T05:48:27.702Z,23.62
2022-11-21T05:51:16.202Z,15.80
2022-11-21T05:54:03.946Z,11.00
2022-11-21T05:56:51.197Z,11.65
2022-11-21T05:59:38.506Z,20.68
2022-11-21T06:02:44.074Z,16.55
2022-11-21T06:05:31.555Z,11.63
2022-11-21T06:08:19.101Z,11.95
2022-11-21T06:11:07.800Z,18.60
2022-11-21T06:13:55.716Z,14.20
2022-11-21T06:16:42.868Z,20.62
2022-11-21T06:19:30.321Z,14.47
2022-11-21T06:22:17.589Z,12.68
2022-11-21T06:25:05.509Z,18.30
2022-11-21T06:27:52.849Z,13.03
2022-11-21T06:30:40.230Z,12.13
2022-11-21T06:33:27.567Z,17.65
2022-11-21T06:36:17.222Z,14.75
2022-11-21T06:39:04.570Z,12.30
2022-11-21T06:41:51.754Z,12.82
2022-11-21T06:44:39.414Z,17.37
2022-11-21T06:47:26.925Z,17.90
2022-11-21T06:50:14.374Z,13.30
2022-11-21T06:53:02.049Z,9.45
2022-11-21T06:55:49.462Z,10.30
2022-11-21T06:58:37.264Z,11.35
2022-11-21T07:01:25.428Z,7.78
2022-11-21T07:04:12.724Z,13.98
2022-11-21T07:07:00.470Z,11.43
2022-11-21T07:09:48.251Z,8.25
2022-11-21T07:12:54.922Z,12.78
2022-11-21T07:15:42.120Z,9.57
2022-11-21T07:18:29.769Z,10.95
2022-11-21T07:21:17.209Z,8.98
2022-11-21T07:24:04.577Z,6.70
2022-11-21T07:26:51.992Z,11.15
2022-11-21T07:29:39.123Z,7.25
2022-11-21T07:32:28.084Z,11.03
2022-11-21T07:35:15.083Z,8.70
2022-11-21T07:38:03.121Z,13.40
2022-11-21T07:40:50.452Z,10.58
2022-11-21T07:43:37.859Z,14.83
2022-11-21T07:46:25.071Z,14.93
2022-11-21T07:49:12.366Z,8.03
2022-11-21T07:51:59.786Z,6.08
2022-11-21T07:54:46.921Z,7.50
2022-11-21T07:57:34.353Z,10.48
2022-11-21T08:00:21.614Z,8.20
2022-11-21T08:03:08.903Z,7.58
2022-11-21T08:05:56.042Z,9.50
2022-11-21T08:08:43.228Z,7.97
2022-11-21T08:11:32.295Z,9.30
2022-11-21T08:14:19.789Z,10.10
2022-11-21T08:17:08.201Z,14.23
2022-11-21T08:19:55.300Z,6.20
2022-11-21T08:22:42.708Z,12.65
2022-11-21T08:25:29.832Z,13.20
2022-11-21T08:28:17.528Z,9.20
2022-11-21T08:31:06.952Z,11.90
2022-11-21T08:33:58.136Z,11.97
2022-11-21T08:36:45.735Z,12.18
2022-11-21T08:39:33.152Z,18.25
2022-11-21T08:42:20.397Z,19.27
2022-11-21T08:45:08.018Z,13.08
2022-11-21T08:47:55.635Z,11.05
2022-11-21T08:50:42.875Z,11.70
2022-11-21T08:53:29.952Z,10.88
2022-11-21T08:56:17.553Z,8.63
2022-11-21T08:59:04.524Z,6.58
2022-11-21T09:01:52.841Z,8.95
2022-11-21T09:04:39.954Z,7.30
2022-11-21T09:07:27.459Z,18.80
2022-11-21T09:10:14.996Z,16.80
2022-11-21T09:13:02.590Z,12.00
2022-11-21T09:16:07.825Z,6.92
2022-11-21T09:18:54.921Z,10.03
2022-11-21T09:21:42.136Z,6.67
2022-11-21T09:24:29.247Z,5.87
2022-11-21T09:27:16.684Z,6.15
2022-11-21T09:30:03.722Z,8.85
2022-11-21T09:32:51.272Z,7.00
2022-11-21T09:35:39.651Z,6.17
2022-11-21T09:38:27.761Z,8.00
2022-11-21T09:41:48.072Z,6.60
2022-11-21T09:44:56.541Z,7.25
2022-11-21T09:47:49.032Z,4.90
2022-11-21T09:50:53.586Z,3.72
2022-11-21T09:54:04.551Z,5.12
2022-11-21T09:56:54.685Z,2.95
2022-11-21T09:59:42.727Z,5.85
2022-11-21T10:02:29.876Z,5.40
2022-11-21T10:05:17.357Z,3.67
2022-11-21T10:08:07.812Z,7.92
2022-11-21T10:10:58.261Z,3.05
2022-11-21T10:14:14.572Z,4.90
2022-11-21T10:17:22.530Z,3.98
2022-11-21T10:20:19.291Z,3.17
2022-11-21T10:23:26.225Z,5.03
2022-11-21T10:26:25.375Z,3.30
2022-11-21T10:29:33.933Z,3.10
2022-11-21T10:32:24.823Z,7.65
2022-11-21T10:35:18.053Z,3.65
2022-11-21T10:38:20.200Z,14.33
2022-11-21T10:41:22.542Z,6.10
2022-11-21T10:44:33.618Z,4.67
2022-11-21T10:47:30.822Z,2.47
2022-11-21T10:50:36.362Z,4.33
2022-11-21T10:53:43.913Z,7.10
2022-11-21T10:56:34.387Z,2.98
2022-11-21T10:59:30.943Z,2.58
2022-11-21T11:02:22.706Z,3.37
2022-11-21T11:05:18.751Z,2.33
2022-11-21T11:08:14.356Z,3.70
2022-11-21T11:11:10.754Z,7.62
2022-11-21T11:14:06.739Z,3.25
2022-11-21T11:16:53.884Z,4.97
2022-11-21T11:19:43.142Z,5.42
2022-11-21T11:22:31.718Z,4.22
2022-11-21T11:25:18.875Z,6.37
2022-11-21T11:28:09.227Z,7.47
2022-11-21T11:30:58.938Z,5.92
2022-11-21T11:33:52.689Z,2.35
2022-11-21T11:36:59.822Z,6.50
2022-11-21T11:39:53.133Z,7.12
2022-11-21T11:43:31.193Z,3.72
2022-11-21T11:46:58.173Z,6.92
2022-11-21T11:50:09.286Z,7.85
2022-11-21T11:53:27.352Z,5.25
2022-11-21T11:59:14.287Z,7.08
2022-11-21T12:02:11.653Z,8.23
2022-11-21T12:05:01.841Z,4.62
2022-11-21T12:08:39.668Z,2.27
2022-11-21T12:10:54.875Z,6.50
2022-11-21T12:13:43.983Z,8.85
2022-11-21T12:16:31.694Z,5.00
2022-11-21T12:19:19.290Z,6.08
2022-11-21T12:22:07.593Z,3.33
2022-11-21T12:24:55.149Z,6.75
2022-11-21T12:27:48.734Z,4.62
2022-11-21T12:30:57.456Z,7.28
2022-11-21T12:34:05.839Z,4.22
2022-11-21T12:37:19.233Z,4.62
2022-11-21T12:40:33.870Z,3.83
2022-11-21T12:43:41.265Z,7.47
2022-11-21T12:46:43.783Z,3.60
2022-11-21T12:50:07.381Z,5.03
2022-11-21T12:53:18.574Z,6.92
2022-11-21T12:56:09.222Z,5.12
2022-11-21T12:58:57.724Z,6.67
2022-11-21T13:01:54.198Z,6.08
2022-11-21T13:04:44.296Z,4.87
2022-11-21T13:07:33.252Z,4.92
2022-11-21T13:10:22.573Z,6.40
2022-11-21T13:13:22.214Z,7.67
2022-11-21T13:16:12.777Z,4.47
2022-11-21T13:19:03.148Z,5.83
2022-11-21T13:21:54.186Z,6.17
2022-11-21T13:24:51.931Z,4.67
2022-11-21T13:27:47.226Z,6.25
2022-11-21T13:30:34.717Z,3.05
2022-11-21T13:33:40.080Z,3.55
2022-11-21T13:36:51.380Z,4.15
2022-11-21T13:39:39.655Z,10.03
2022-11-21T13:42:58.379Z,4.40
2022-11-21T13:45:45.492Z,3.05
2022-11-21T13:48:52.208Z,11.57
2022-11-21T13:51:46.147Z,4.83
2022-11-21T13:55:05.538Z,4.15
2022-11-21T13:58:07.653Z,6.42
2022-11-21T14:01:14.696Z,5.97
2022-11-21T14:04:20.842Z,6.22
2022-11-21T14:07:26.438Z,8.30
2022-11-21T14:10:33.517Z,9.30
2022-11-21T14:13:29.842Z,10.82
2022-11-21T14:16:26.546Z,5.17
2022-11-21T14:19:21.327Z,4.28
2022-11-21T14:22:34.741Z,5.17
2022-11-21T14:25:21.899Z,8.75
2022-11-21T14:28:23.890Z,8.48
2022-11-21T14:31:13.194Z,5.05
2022-11-21T14:34:00.596Z,8.53
2022-11-21T14:36:49.630Z,7.00
2022-11-21T14:39:44.143Z,5.33
2022-11-21T14:42:37.175Z,7.58
2022-11-21T14:45:25.273Z,6.65
2022-11-21T14:48:13.924Z,7.08
2022-11-21T14:51:02.013Z,6.97
2022-11-21T14:53:50.706Z,3.65
2022-11-21T14:56:38.417Z,7.42
2022-11-21T14:59:43.056Z,4.97
2022-11-21T15:02:32.300Z,7.85
2022-11-21T15:05:40.268Z,7.22
2022-11-21T15:08:44.384Z,7.80
2022-11-21T15:11:01.363Z,11.85
2022-11-21T15:14:12.885Z,9.50
2022-11-21T15:16:40.598Z,8.45
2022-11-21T15:19:30.507Z,8.90
2022-11-21T15:22:24.171Z,6.35
2022-11-21T15:25:23.122Z,9.10
2022-11-21T15:28:17.016Z,12.25
2022-11-21T15:31:18.706Z,6.25
2022-11-21T15:37:17.268Z,7.05
2022-11-21T15:40:04.625Z,16.17
2022-11-21T15:42:52.119Z,6.60
2022-11-21T15:45:39.912Z,8.78
2022-11-21T15:48:27.364Z,8.73
2022-11-21T15:51:15.668Z,8.68
2022-11-21T15:54:03.693Z,9.28
2022-11-21T15:56:51.692Z,7.55
2022-11-21T15:59:39.602Z,5.47
2022-11-21T16:02:27.052Z,8.35
2022-11-21T16:05:15.834Z,5.40
2022-11-21T16:08:03.221Z,9.10
2022-11-21T16:10:50.668Z,10.08
2022-11-21T16:13:38.406Z,9.15
2022-11-21T16:16:28.073Z,11.50
2022-11-21T16:19:15.955Z,12.70
2022-11-21T16:22:03.366Z,9.45
2022-11-21T16:24:51.062Z,10.13
2022-11-21T16:27:38.471Z,16.65
2022-11-21T16:30:25.829Z,8.53
2022-11-21T16:33:13.305Z,13.10
2022-11-21T16:36:00.995Z,10.20
2022-11-21T16:38:48.273Z,9.83
2022-11-21T16:41:35.254Z,14.78
2022-11-21T16:44:22.759Z,11.30
2022-11-21T16:47:10.294Z,11.93
2022-11-21T16:49:57.462Z,11.25
2022-11-21T16:52:44.673Z,13.75
2022-11-21T16:55:33.548Z,15.35
2022-11-21T16:58:20.878Z,17.55
2022-11-21T17:01:11.998Z,6.33
2022-11-21T17:03:59.332Z,15.75
2022-11-21T17:06:48.373Z,10.90
2022-11-21T17:09:35.579Z,14.63
2022-11-21T17:12:23.374Z,9.63
2022-11-21T17:15:15.648Z,10.13
2022-11-21T17:18:03.131Z,10.00
2022-11-21T17:20:50.689Z,11.50
2022-11-21T17:23:40.262Z,14.53
2022-11-21T17:26:29.802Z,14.35
2022-11-21T17:29:17.109Z,11.93
2022-11-21T17:32:04.358Z,14.70
2022-11-21T17:34:51.857Z,8.63
2022-11-21T17:37:39.156Z,13.80
2022-11-21T17:40:26.501Z,8.95
2022-11-21T17:43:13.905Z,12.35
2022-11-21T17:46:09.064Z,10.68
2022-11-21T17:48:57.150Z,11.90
2022-11-21T17:51:42.497Z,9.65
2022-11-21T17:54:30.029Z,10.98
2022-11-21T17:57:17.818Z,10.93
2022-11-21T18:00:07.033Z,17.98
2022-11-21T18:02:55.033Z,11.20
2022-11-21T18:05:42.538Z,13.75
2022-11-21T18:08:52.819Z,14.20
2022-11-21T18:11:40.906Z,14.65
2022-11-21T18:14:28.567Z,13.30
2022-11-21T18:17:15.947Z,13.08
2022-11-21T18:20:03.411Z,9.65
2022-11-21T18:22:50.616Z,15.83
2022-11-21T18:25:38.830Z,13.25
2022-11-21T18:28:26.085Z,14.33
2022-11-21T18:31:15.686Z,16.00
2022-11-21T18:34:05.390Z,11.50
2022-11-21T18:36:53.739Z,13.62
2022-11-21T18:39:41.330Z,21.02
2022-11-21T18:42:28.777Z,11.60
2022-11-21T18:45:16.013Z,14.47
2022-11-21T18:48:04.347Z,15.83
2022-11-21T18:50:51.240Z,11.57
2022-11-21T18:53:38.599Z,12.75
2022-11-21T18:56:27.231Z,19.15
2022-11-21T18:59:14.499Z,7.80
2022-11-21T19:02:01.469Z,11.95
2022-11-21T19:04:48.757Z,10.43
2022-11-21T19:07:36.439Z,12.73
2022-11-21T19:13:12.788Z,55.52
2022-11-21T19:16:07.949Z,19.07
2022-11-21T19:19:26.496Z,16.67
2022-11-21T19:21:45.741Z,16.52
2022-11-21T19:24:33.476Z,18.32
2022-11-21T19:27:22.289Z,16.10
2022-11-21T19:30:09.752Z,17.25
2022-11-21T19:32:59.590Z,12.80
2022-11-21T19:35:46.526Z,16.27
2022-11-21T19:38:34.133Z,16.23
2022-11-21T19:41:25.773Z,15.50
2022-11-21T19:44:12.910Z,16.37
2022-11-21T19:47:00.342Z,12.00
2022-11-21T19:49:48.023Z,16.57
2022-11-21T19:52:35.418Z,14.95
2022-11-21T19:55:22.870Z,14.75
2022-11-21T19:58:10.343Z,17.70
2022-11-21T20:01:01.125Z,29.50
2022-11-21T20:03:50.809Z,24.20
2022-11-21T20:06:41.419Z,18.55
2022-11-21T20:09:34.344Z,15.55
2022-11-21T20:12:17.491Z,20.85
2022-11-21T20:15:05.098Z,23.83
2022-11-21T20:17:53.182Z,22.35
2022-11-21T20:20:40.674Z,18.32
2022-11-21T20:23:28.166Z,24.45
2022-11-21T20:26:17.794Z,22.15
2022-11-21T20:29:06.241Z,18.12
2022-11-21T20:31:55.024Z,19.50
2022-11-21T20:34:42.469Z,16.82
2022-11-21T20:37:29.703Z,15.90
2022-11-21T20:40:17.345Z,15.98
2022-11-21T20:43:05.042Z,15.00
2022-11-21T20:46:11.799Z,12.82
2022-11-21T20:48:41.686Z,12.37
2022-11-21T20:54:17.893Z,17.25
2022-11-21T20:57:09.195Z,10.28
2022-11-21T20:59:54.721Z,10.23
2022-11-21T21:02:42.262Z,8.03
2022-11-21T21:05:29.777Z,10.13
2022-11-21T21:08:17.037Z,8.38
2022-11-21T21:11:30.931Z,10.75
2022-11-21T21:14:02.471Z,10.23
2022-11-21T21:16:50.419Z,13.15
2022-11-21T21:19:37.918Z,14.80
2022-11-21T21:22:25.416Z,11.90
2022-11-21T21:25:12.621Z,11.08
2022-11-21T21:28:00.128Z,10.45
2022-11-21T21:30:47.236Z,18.27
2022-11-21T21:33:34.398Z,13.68
2022-11-21T21:36:23.856Z,12.50
2022-11-21T21:39:11.309Z,11.80
2022-11-21T21:41:58.812Z,12.63
2022-11-21T21:44:46.029Z,11.15
2022-11-21T21:47:33.215Z,14.20
2022-11-21T21:50:20.763Z,12.10
2022-11-21T21:53:08.099Z,12.13
2022-11-21T21:56:00.656Z,12.05
2022-11-21T21:58:48.994Z,11.15
2022-11-21T22:01:36.544Z,12.63
2022-11-21T22:04:23.626Z,13.25
2022-11-21T22:07:10.891Z,13.43
2022-11-21T22:09:58.369Z,8.50
2022-11-21T22:12:48.546Z,10.28
2022-11-21T22:15:35.786Z,11.00
2022-11-21T22:18:23.463Z,13.40
2022-11-21T22:21:16.213Z,15.20
2022-11-21T22:24:25.010Z,11.75
2022-11-21T22:26:55.908Z,12.78
2022-11-21T22:29:43.271Z,14.10
2022-11-21T22:32:30.808Z,13.25
2022-11-21T22:35:18.061Z,11.03
2022-11-21T22:38:05.634Z,14.00
2022-11-21T22:40:53.319Z,12.00
2022-11-21T22:43:42.337Z,15.00
2022-11-21T22:46:30.772Z,13.95
2022-11-21T22:49:18.389Z,10.08
2022-11-21T22:52:05.998Z,10.48
2022-11-21T22:54:53.186Z,13.78
2022-11-21T22:57:40.563Z,11.18
2022-11-21T23:00:28.037Z,12.58
2022-11-21T23:03:15.659Z,10.32
2022-11-21T23:06:05.870Z,8.83
2022-11-21T23:08:54.491Z,9.60
2022-11-21T23:11:41.648Z,11.88
2022-11-21T23:14:29.321Z,13.13
2022-11-21T23:17:16.986Z,11.97
2022-11-21T23:20:05.768Z,9.50
2022-11-21T23:22:52.978Z,12.63
2022-11-21T23:25:40.693Z,9.08
2022-11-21T23:28:27.817Z,7.35
2022-11-21T23:31:15.170Z,12.80
2022-11-21T23:34:02.490Z,12.85
2022-11-21T23:36:49.731Z,9.13
2022-11-21T23:39:37.162Z,9.30
2022-11-21T23:42:24.339Z,9.45
2022-11-21T23:45:12.105Z,8.13
2022-11-21T23:47:59.517Z,7.62
2022-11-21T23:50:50.749Z,6.62
2022-11-21T23:53:37.967Z,10.23
2022-11-21T23:56:25.042Z,11.73
2022-11-21T23:59:12.223Z,10.75
